createdAt,value
2018-01-21T00:00:02.862Z,34.72
2018-01-21T00:02:29.164Z,33.60
2018-01-21T00:04:55.473Z,32.83
2018-01-21T00:07:21.778Z,33.67
2018-01-21T00:09:47.834Z,33.83
2018-01-21T00:12:14.676Z,32.83
2018-01-21T00:14:41.452Z,32.95
2018-01-21T00:17:07.492Z,32.58
2018-01-21T00:19:33.517Z,32.65
2018-01-21T00:21:59.582Z,32.33
2018-01-21T00:24:25.644Z,32.55
2018-01-21T00:26:51.710Z,32.85
2018-01-21T00:29:17.757Z,31.35
2018-01-21T00:31:43.800Z,31.85
2018-01-21T00:34:09.837Z,31.87
2018-01-21T00:36:35.895Z,35.85
2018-01-21T00:39:01.932Z,36.38
2018-01-21T00:41:28.937Z,33.58
2018-01-21T00:43:55.048Z,35.90
2018-01-21T00:46:21.953Z,33.75
2018-01-21T00:48:48.087Z,34.10
2018-01-21T00:51:14.788Z,32.75
2018-01-21T00:53:41.573Z,33.05
2018-01-21T00:56:07.600Z,33.85
2018-01-21T00:58:34.372Z,33.53
2018-01-21T01:01:00.417Z,34.35
2018-01-21T01:03:26.451Z,34.50
2018-01-21T01:05:52.489Z,33.53
2018-01-21T01:08:18.525Z,34.95
2018-01-21T01:10:44.644Z,33.28
2018-01-21T01:13:10.677Z,37.05
2018-01-21T01:15:36.782Z,35.83
2018-01-21T01:18:02.845Z,35.97
2018-01-21T01:20:29.704Z,34.15
2018-01-21T01:22:55.850Z,35.00
2018-01-21T01:25:21.884Z,35.95
2018-01-21T01:27:47.974Z,34.30
2018-01-21T01:30:14.087Z,33.40
2018-01-21T01:32:40.265Z,36.42
2018-01-21T01:35:07.061Z,36.03
2018-01-21T01:37:33.122Z,37.15
2018-01-21T01:39:59.160Z,40.08
2018-01-21T01:42:25.213Z,40.10
2018-01-21T01:44:51.256Z,37.70
2018-01-21T01:47:21.843Z,36.67
2018-01-21T01:49:48.191Z,40.75
2018-01-21T01:52:15.034Z,38.35
2018-01-21T01:54:41.808Z,38.25
2018-01-21T01:57:07.852Z,41.53
2018-01-21T01:59:33.941Z,39.10
2018-01-21T02:02:00.766Z,36.78
2018-01-21T02:04:27.149Z,36.70
2018-01-21T02:06:53.934Z,36.42
2018-01-21T02:09:19.959Z,33.45
2018-01-21T02:11:46.049Z,33.72
2018-01-21T02:14:12.084Z,33.20
2018-01-21T02:16:38.109Z,31.27
2018-01-21T02:19:04.900Z,29.58
2018-01-21T02:21:31.678Z,29.10
2018-01-21T02:23:57.712Z,30.12
2018-01-21T02:26:23.744Z,30.33
2018-01-21T02:28:49.780Z,29.23
2018-01-21T02:31:15.796Z,28.92
2018-01-21T02:33:42.657Z,27.80
2018-01-21T02:36:09.694Z,27.98
2018-01-21T02:38:36.721Z,26.75
2018-01-21T02:41:03.976Z,27.42
2018-01-21T02:43:30.343Z,26.30
2018-01-21T02:45:57.350Z,24.15
2018-01-21T02:48:24.317Z,23.20
2018-01-21T02:50:50.439Z,21.42
2018-01-21T02:53:20.367Z,21.73
2018-01-21T02:55:46.643Z,21.25
2018-01-21T02:58:13.176Z,22.37
2018-01-21T03:00:40.148Z,22.77
2018-01-21T03:03:06.428Z,23.35
2018-01-21T03:05:32.635Z,22.52
2018-01-21T03:07:58.882Z,22.48
2018-01-21T03:10:26.428Z,21.37
2018-01-21T03:12:52.775Z,20.45
2018-01-21T03:15:19.116Z,22.50
2018-01-21T03:17:46.064Z,21.25
2018-01-21T03:20:13.028Z,21.58
2018-01-21T03:22:39.332Z,21.15
2018-01-21T03:25:06.328Z,21.45
2018-01-21T03:27:32.551Z,20.25
2018-01-21T03:29:58.833Z,19.77
2018-01-21T03:32:26.479Z,20.45
2018-01-21T03:34:52.792Z,19.87
2018-01-21T03:37:19.787Z,19.87
2018-01-21T03:39:46.040Z,18.10
2018-01-21T03:42:12.680Z,18.30
2018-01-21T03:44:39.636Z,18.45
2018-01-21T03:47:05.982Z,20.15
2018-01-21T03:49:32.296Z,18.92
2018-01-21T03:51:58.531Z,19.85
2018-01-21T03:54:25.550Z,18.10
2018-01-21T03:56:51.792Z,20.05
2018-01-21T03:59:18.579Z,19.25
2018-01-21T04:01:44.848Z,17.12
2018-01-21T04:04:11.070Z,17.70
2018-01-21T04:06:37.290Z,17.62
2018-01-21T04:09:03.552Z,15.90
2018-01-21T04:11:29.854Z,17.77
2018-01-21T04:13:56.120Z,15.27
2018-01-21T04:16:22.340Z,16.75
2018-01-21T04:18:48.615Z,17.33
2018-01-21T04:21:14.844Z,17.30
2018-01-21T04:23:41.078Z,17.42
2018-01-21T04:26:07.629Z,18.98
2018-01-21T04:28:35.743Z,21.10
2018-01-21T04:31:02.144Z,20.48
2018-01-21T04:33:28.452Z,20.92
2018-01-21T04:35:58.341Z,20.48
2018-01-21T04:38:24.595Z,18.80
2018-01-21T04:40:50.879Z,21.52
2018-01-21T04:43:17.121Z,20.30
2018-01-21T04:45:43.364Z,18.62
2018-01-21T04:48:09.702Z,20.90
2018-01-21T04:50:36.684Z,19.25
2018-01-21T04:53:02.941Z,20.92
2018-01-21T04:55:29.983Z,20.83
2018-01-21T04:57:56.265Z,20.37
2018-01-21T05:00:23.348Z,21.60
2018-01-21T05:02:50.152Z,21.08
2018-01-21T05:05:16.405Z,20.27
2018-01-21T05:07:42.676Z,23.87
2018-01-21T05:10:09.676Z,23.52
2018-01-21T05:12:36.123Z,21.35
2018-01-21T05:15:02.396Z,20.33
2018-01-21T05:17:28.663Z,20.73
2018-01-21T05:19:54.956Z,21.08
2018-01-21T05:22:22.030Z,21.90
2018-01-21T05:24:48.322Z,21.75
2018-01-21T05:27:14.562Z,22.08
2018-01-21T05:29:40.780Z,21.60
2018-01-21T05:32:07.800Z,20.85
2018-01-21T05:34:34.036Z,21.15
2018-01-21T05:37:00.314Z,20.70
2018-01-21T05:39:26.980Z,18.90
2018-01-21T05:41:53.953Z,19.30
2018-01-21T05:44:20.200Z,19.52
2018-01-21T05:46:47.176Z,20.58
2018-01-21T05:49:14.141Z,20.42
2018-01-21T05:51:40.397Z,21.33
2018-01-21T05:54:06.716Z,20.50
2018-01-21T05:56:33.824Z,22.00
2018-01-21T05:59:00.062Z,21.62
2018-01-21T06:01:26.316Z,21.52
2018-01-21T06:03:52.856Z,20.23
2018-01-21T06:06:19.092Z,21.75
2018-01-21T06:08:45.412Z,18.45
2018-01-21T06:11:11.620Z,18.73
2018-01-21T06:13:38.618Z,18.23
2018-01-21T06:16:04.848Z,19.73
2018-01-21T06:18:31.813Z,18.62
2018-01-21T06:20:58.066Z,19.83
2018-01-21T06:23:24.364Z,18.37
2018-01-21T06:25:51.339Z,20.85
2018-01-21T06:28:20.160Z,18.77
2018-01-21T06:30:47.201Z,17.08
2018-01-21T06:33:14.160Z,18.45
2018-01-21T06:35:40.428Z,18.30
2018-01-21T06:38:06.689Z,18.62
2018-01-21T06:40:32.925Z,16.85
2018-01-21T06:42:59.170Z,17.00
2018-01-21T06:45:25.408Z,15.85
2018-01-21T06:47:51.648Z,18.37
2018-01-21T06:50:17.913Z,15.75
2018-01-21T06:52:44.133Z,15.82
2018-01-21T06:55:10.548Z,15.82
2018-01-21T06:57:36.915Z,15.10
2018-01-21T07:00:03.178Z,14.77
2018-01-21T07:02:29.460Z,15.75
2018-01-21T07:04:56.416Z,14.95
2018-01-21T07:07:23.729Z,15.65
2018-01-21T07:09:49.964Z,14.90
2018-01-21T07:12:16.254Z,14.50
2018-01-21T07:14:43.224Z,13.82
2018-01-21T07:17:10.308Z,15.90
2018-01-21T07:19:36.566Z,15.05
2018-01-21T07:22:05.504Z,14.23
2018-01-21T07:24:32.493Z,14.02
2018-01-21T07:26:59.105Z,16.37
2018-01-21T07:29:25.337Z,15.07
2018-01-21T07:31:52.368Z,16.15
2018-01-21T07:34:18.762Z,15.52
2018-01-21T07:36:45.034Z,15.80
2018-01-21T07:39:11.992Z,14.98
2018-01-21T07:41:38.240Z,13.80
2018-01-21T07:44:04.730Z,13.95
2018-01-21T07:46:31.207Z,15.85
2018-01-21T07:48:59.113Z,12.45
2018-01-21T07:51:27.849Z,13.90
2018-01-21T07:53:54.080Z,13.05
2018-01-21T07:56:20.343Z,12.50
2018-01-21T07:58:46.639Z,12.82
2018-01-21T08:01:12.865Z,12.15
2018-01-21T08:03:39.884Z,14.38
2018-01-21T08:06:06.089Z,11.68
2018-01-21T08:08:32.320Z,12.70
2018-01-21T08:10:58.553Z,13.32
2018-01-21T08:13:24.780Z,13.62
2018-01-21T08:15:51.970Z,12.95
2018-01-21T08:18:18.208Z,14.20
2018-01-21T08:20:45.676Z,12.52
2018-01-21T08:23:11.925Z,13.23
2018-01-21T08:25:38.169Z,15.10
2018-01-21T08:28:04.528Z,13.10
2018-01-21T08:30:30.753Z,13.98
2018-01-21T08:32:56.965Z,13.32
2018-01-21T08:35:29.449Z,12.43
2018-01-21T08:41:02.220Z,12.90
2018-01-21T08:43:28.446Z,11.27
2018-01-21T08:45:54.687Z,11.05
2018-01-21T08:48:20.925Z,11.15
2018-01-21T08:50:47.188Z,10.50
2018-01-21T08:53:13.419Z,9.98
2018-01-21T08:55:39.687Z,11.12
2018-01-21T08:58:06.728Z,11.15
2018-01-21T09:00:32.965Z,9.48
2018-01-21T09:02:59.196Z,9.18
2018-01-21T09:05:25.428Z,8.50
2018-01-21T09:07:51.664Z,8.77
2018-01-21T09:10:18.013Z,9.13
2018-01-21T09:12:44.280Z,9.75
2018-01-21T09:15:10.677Z,9.45
2018-01-21T09:17:36.924Z,9.40
2018-01-21T09:20:06.128Z,10.85
2018-01-21T09:22:32.344Z,10.85
2018-01-21T09:24:58.638Z,11.82
2018-01-21T09:27:24.914Z,12.55
2018-01-21T09:29:51.705Z,11.73
2018-01-21T09:32:18.752Z,13.98
2018-01-21T09:34:45.772Z,12.55
2018-01-21T09:37:12.036Z,13.55
2018-01-21T09:39:38.265Z,12.60
2018-01-21T09:42:04.485Z,12.80
2018-01-21T09:44:30.810Z,14.45
2018-01-21T09:46:58.007Z,13.50
2018-01-21T09:49:25.653Z,13.52
2018-01-21T09:51:51.905Z,13.88
2018-01-21T09:54:17.922Z,14.07
2018-01-21T09:56:43.979Z,13.27
2018-01-21T09:59:10.022Z,13.98
2018-01-21T10:01:36.072Z,14.82
2018-01-21T10:04:02.197Z,14.25
2018-01-21T10:06:28.242Z,19.40
2018-01-21T10:08:54.317Z,14.48
2018-01-21T10:11:21.164Z,14.55
2018-01-21T10:13:47.321Z,14.55
2018-01-21T10:16:14.093Z,14.30
2018-01-21T10:18:40.126Z,14.52
2018-01-21T10:21:06.321Z,14.95
2018-01-21T10:23:32.392Z,12.50
2018-01-21T10:25:59.193Z,13.30
2018-01-21T10:28:25.232Z,13.50
2018-01-21T10:30:51.289Z,13.68
2018-01-21T10:33:17.697Z,13.27
2018-01-21T10:35:43.725Z,12.68
2018-01-21T10:38:09.765Z,12.55
2018-01-21T10:40:37.164Z,12.48
2018-01-21T10:43:03.201Z,13.07
2018-01-21T10:45:29.291Z,13.55
2018-01-21T10:47:56.128Z,11.55
2018-01-21T10:50:22.264Z,12.05
2018-01-21T10:52:49.161Z,11.68
2018-01-21T10:55:15.200Z,12.18
2018-01-21T10:57:41.233Z,12.68
2018-01-21T11:00:07.508Z,12.43
2018-01-21T11:02:33.789Z,13.70
2018-01-21T11:05:00.058Z,12.60
2018-01-21T11:07:26.477Z,12.18
2018-01-21T11:09:52.720Z,12.15
2018-01-21T11:12:19.721Z,12.23
2018-01-21T11:14:45.984Z,12.50
2018-01-21T11:17:12.529Z,13.23
2018-01-21T11:19:38.793Z,13.10
2018-01-21T11:22:05.105Z,12.50
2018-01-21T11:24:32.133Z,12.65
2018-01-21T11:26:58.393Z,12.05
2018-01-21T11:29:24.755Z,12.00
2018-01-21T11:31:51.063Z,10.68
2018-01-21T11:34:17.261Z,11.90
2018-01-21T11:36:43.748Z,11.27
2018-01-21T11:39:10.732Z,10.77
2018-01-21T11:41:37.074Z,10.32
2018-01-21T11:44:03.414Z,12.70
2018-01-21T11:46:29.814Z,11.82
2018-01-21T11:48:56.096Z,11.52
2018-01-21T11:51:23.089Z,11.07
2018-01-21T11:53:50.424Z,11.75
2018-01-21T11:56:17.385Z,10.43
2018-01-21T11:58:44.348Z,10.85
2018-01-21T12:01:10.581Z,11.05
2018-01-21T12:03:36.881Z,12.20
2018-01-21T12:06:03.125Z,13.95
2018-01-21T12:08:29.392Z,9.88
2018-01-21T12:10:56.416Z,10.20
2018-01-21T12:13:22.640Z,12.25
2018-01-21T12:15:49.981Z,11.35
2018-01-21T12:18:16.309Z,9.90
2018-01-21T12:20:43.284Z,11.57
2018-01-21T12:23:09.629Z,10.77
2018-01-21T12:25:35.861Z,10.10
2018-01-21T12:28:02.100Z,10.70
2018-01-21T12:30:29.082Z,11.25
2018-01-21T12:32:55.346Z,11.25
2018-01-21T12:35:22.437Z,13.00
2018-01-21T12:37:49.505Z,13.77
2018-01-21T12:40:15.730Z,11.88
2018-01-21T12:42:42.045Z,8.48
2018-01-21T12:45:08.302Z,6.95
2018-01-21T12:47:34.609Z,5.45
2018-01-21T12:50:01.605Z,6.95
2018-01-21T12:52:27.880Z,5.28
2018-01-21T12:54:54.137Z,4.75
2018-01-21T12:57:20.504Z,5.72
2018-01-21T12:59:46.761Z,5.80
2018-01-21T13:02:13.321Z,4.82
2018-01-21T13:04:39.548Z,6.65
2018-01-21T13:07:05.789Z,6.70
2018-01-21T13:09:32.066Z,5.70
2018-01-21T13:11:58.308Z,6.72
2018-01-21T13:14:24.525Z,7.90
2018-01-21T13:16:50.969Z,7.53
2018-01-21T13:19:17.264Z,7.45
2018-01-21T13:21:43.580Z,7.00
2018-01-21T13:24:09.865Z,7.05
2018-01-21T13:26:36.121Z,6.97
2018-01-21T13:29:02.373Z,8.95
2018-01-21T13:31:28.624Z,5.85
2018-01-21T13:33:55.034Z,6.15
2018-01-21T13:36:22.004Z,6.47
2018-01-21T13:38:49.061Z,6.25
2018-01-21T13:41:15.317Z,5.10
2018-01-21T13:43:41.636Z,6.35
2018-01-21T13:46:07.864Z,5.87
2018-01-21T13:48:34.888Z,4.00
2018-01-21T13:51:01.108Z,4.25
2018-01-21T13:53:27.370Z,3.90
2018-01-21T13:55:53.660Z,5.22
2018-01-21T13:58:19.888Z,3.78
2018-01-21T14:00:46.160Z,3.60
2018-01-21T14:03:12.389Z,4.15
2018-01-21T14:05:38.604Z,3.60
2018-01-21T14:08:04.856Z,3.25
2018-01-21T14:10:31.248Z,3.60
2018-01-21T14:12:57.597Z,3.90
2018-01-21T14:15:23.883Z,4.47
2018-01-21T14:17:50.236Z,4.53
2018-01-21T14:20:16.501Z,3.58
2018-01-21T14:22:42.724Z,5.40
2018-01-21T14:25:08.975Z,3.90
2018-01-21T14:27:35.988Z,3.67
2018-01-21T14:30:02.237Z,4.20
2018-01-21T14:32:28.945Z,3.60
2018-01-21T14:34:55.156Z,4.72
2018-01-21T14:37:22.165Z,4.40
2018-01-21T14:39:48.397Z,5.57
2018-01-21T14:42:17.117Z,6.70
2018-01-21T14:44:43.652Z,6.12
2018-01-21T14:47:09.880Z,9.77
2018-01-21T14:49:37.176Z,8.48
2018-01-21T14:52:03.420Z,6.40
2018-01-21T14:54:31.269Z,7.57
2018-01-21T14:56:57.465Z,6.57
2018-01-21T14:59:23.736Z,6.97
2018-01-21T15:01:50.716Z,6.10
2018-01-21T15:04:17.013Z,6.40
2018-01-21T15:06:43.273Z,5.30
2018-01-21T15:09:10.251Z,4.85
2018-01-21T15:11:37.245Z,5.37
2018-01-21T15:14:03.508Z,5.20
2018-01-21T15:16:30.541Z,4.90
2018-01-21T15:18:56.921Z,6.07
2018-01-21T15:21:23.247Z,5.05
2018-01-21T15:23:49.640Z,5.45
2018-01-21T15:26:16.229Z,6.18
2018-01-21T15:28:42.449Z,4.97
2018-01-21T15:31:09.417Z,5.45
2018-01-21T15:33:36.582Z,6.07
2018-01-21T15:36:02.888Z,5.50
2018-01-21T15:38:29.989Z,6.57
2018-01-21T15:40:56.264Z,6.40
2018-01-21T15:43:22.709Z,6.80
2018-01-21T15:45:48.956Z,6.20
2018-01-21T15:48:15.192Z,5.70
2018-01-21T15:50:41.440Z,7.12
2018-01-21T15:53:07.652Z,5.60
2018-01-21T15:55:33.892Z,6.35
2018-01-21T15:58:02.866Z,6.70
2018-01-21T16:00:29.388Z,7.47
2018-01-21T16:02:55.669Z,7.10
2018-01-21T16:05:21.952Z,7.93
2018-01-21T16:07:48.241Z,8.38
2018-01-21T16:10:14.504Z,13.02
2018-01-21T16:12:40.756Z,8.02
2018-01-21T16:15:07.796Z,7.40
2018-01-21T16:17:34.767Z,6.22
2018-01-21T16:20:00.973Z,7.32
2018-01-21T16:22:27.214Z,7.12
2018-01-21T16:24:53.448Z,6.70
2018-01-21T16:27:19.740Z,8.07
2018-01-21T16:29:46.020Z,8.00
2018-01-21T16:32:12.276Z,7.80
2018-01-21T16:34:38.612Z,7.97
2018-01-21T16:37:04.887Z,8.25
2018-01-21T16:39:31.877Z,7.05
2018-01-21T16:41:58.084Z,8.30
2018-01-21T16:44:25.129Z,7.93
2018-01-21T16:46:51.672Z,8.90
2018-01-21T16:49:17.885Z,10.10
2018-01-21T16:51:44.170Z,11.48
2018-01-21T16:54:11.137Z,16.45
2018-01-21T16:56:37.406Z,14.63
2018-01-21T16:59:03.669Z,18.02
2018-01-21T17:01:29.918Z,12.35
2018-01-21T17:03:56.144Z,13.07
2018-01-21T17:06:22.421Z,14.02
2018-01-21T17:08:48.752Z,17.50
2018-01-21T17:11:15.815Z,18.15
2018-01-21T17:13:42.065Z,16.10
2018-01-21T17:16:08.440Z,15.88
2018-01-21T17:18:34.765Z,14.50
2018-01-21T17:21:02.594Z,13.75
2018-01-21T17:23:29.094Z,14.32
2018-01-21T17:25:55.556Z,18.33
2018-01-21T17:28:22.001Z,13.30
2018-01-21T17:30:48.018Z,15.07
2018-01-21T17:33:14.789Z,14.75
2018-01-21T17:35:40.918Z,14.43
2018-01-21T17:38:07.152Z,11.85
2018-01-21T17:40:36.845Z,10.95
2018-01-21T17:43:03.084Z,10.70
2018-01-21T17:45:29.316Z,10.48
2018-01-21T17:47:55.712Z,11.30
2018-01-21T17:50:22.669Z,11.07
2018-01-21T17:52:49.706Z,11.95
2018-01-21T17:55:16.080Z,38.17
2018-01-21T17:57:42.489Z,26.55
2018-01-21T18:00:08.868Z,51.78
2018-01-21T18:02:35.080Z,31.77
2018-01-21T18:05:01.348Z,35.42
2018-01-21T18:07:27.678Z,29.63
2018-01-21T18:09:54.669Z,18.67
2018-01-21T18:12:21.714Z,21.87
2018-01-21T18:14:48.763Z,19.42
2018-01-21T18:17:15.032Z,14.55
2018-01-21T18:19:41.333Z,13.88
2018-01-21T18:22:08.626Z,14.05
2018-01-21T18:24:35.226Z,13.57
2018-01-21T18:27:01.532Z,14.15
2018-01-21T18:29:28.577Z,14.25
2018-01-21T18:31:55.649Z,17.10
2018-01-21T18:34:22.619Z,20.42
2018-01-21T18:36:49.144Z,17.15
2018-01-21T18:39:18.205Z,14.48
2018-01-21T18:41:44.548Z,13.77
2018-01-21T18:44:11.544Z,13.62
2018-01-21T18:46:37.901Z,14.25
2018-01-21T18:49:04.946Z,13.65
2018-01-21T18:51:31.329Z,15.95
2018-01-21T18:53:57.677Z,15.73
2018-01-21T18:56:24.134Z,18.55
2018-01-21T18:58:50.413Z,17.40
2018-01-21T19:01:16.859Z,17.60
2018-01-21T19:03:43.105Z,17.30
2018-01-21T19:06:10.115Z,19.15
2018-01-21T19:08:36.406Z,19.50
2018-01-21T19:11:03.488Z,19.08
2018-01-21T19:13:29.747Z,18.40
2018-01-21T19:15:56.080Z,16.67
2018-01-21T19:18:23.052Z,16.45
2018-01-21T19:20:49.737Z,16.67
2018-01-21T19:23:16.032Z,15.80
2018-01-21T19:25:42.301Z,16.20
2018-01-21T19:28:08.732Z,16.85
2018-01-21T19:30:35.061Z,17.70
2018-01-21T19:33:01.351Z,15.60
2018-01-21T19:35:27.910Z,16.08
2018-01-21T19:37:54.913Z,17.95
2018-01-21T19:40:22.797Z,18.05
2018-01-21T19:42:55.240Z,18.33
2018-01-21T19:45:21.552Z,21.25
2018-01-21T19:47:48.399Z,18.10
2018-01-21T19:50:14.540Z,16.37
2018-01-21T19:52:40.564Z,18.27
2018-01-21T19:55:06.588Z,19.15
2018-01-21T19:57:35.825Z,16.35
2018-01-21T20:00:01.887Z,17.98
2018-01-21T20:02:28.657Z,18.05
2018-01-21T20:04:55.906Z,16.83
2018-01-21T20:07:22.763Z,15.65
2018-01-21T20:09:49.690Z,20.15
2018-01-21T20:12:16.828Z,20.23
2018-01-21T20:14:42.861Z,18.25
2018-01-21T20:17:08.902Z,17.05
2018-01-21T20:19:34.939Z,18.85
2018-01-21T20:22:00.981Z,17.65
2018-01-21T20:24:27.007Z,17.65
2018-01-21T20:26:54.144Z,17.08
2018-01-21T20:29:20.175Z,17.35
2018-01-21T20:31:46.201Z,17.25
2018-01-21T20:34:16.308Z,16.98
2018-01-21T20:36:42.348Z,16.20
2018-01-21T20:39:08.389Z,16.05
2018-01-21T20:41:34.433Z,16.90
2018-01-21T20:44:01.219Z,15.38
2018-01-21T20:46:27.317Z,14.00
2018-01-21T20:48:53.404Z,14.00
2018-01-21T20:51:25.729Z,15.60
2018-01-21T20:53:57.851Z,15.02
2018-01-21T20:56:23.897Z,13.25
2018-01-21T20:58:49.976Z,16.58
2018-01-21T21:01:16.746Z,14.55
2018-01-21T21:03:42.806Z,13.45
2018-01-21T21:06:09.636Z,12.55
2018-01-21T21:08:35.665Z,10.73
2018-01-21T21:11:01.688Z,11.35
2018-01-21T21:13:27.767Z,12.07
2018-01-21T21:15:54.645Z,10.45
2018-01-21T21:18:23.037Z,10.45
2018-01-21T21:20:49.112Z,9.70
2018-01-21T21:23:15.176Z,10.75
2018-01-21T21:25:42.028Z,9.13
2018-01-21T21:28:08.220Z,8.70
2018-01-21T21:30:34.248Z,9.50
2018-01-21T21:33:00.286Z,8.02
2018-01-21T21:35:26.322Z,7.20
2018-01-21T21:37:52.353Z,8.40
2018-01-21T21:40:18.397Z,7.12
2018-01-21T21:42:44.474Z,7.50
2018-01-21T21:45:10.508Z,7.68
2018-01-21T21:47:36.545Z,8.63
2018-01-21T21:50:02.596Z,10.15
2018-01-21T21:52:28.736Z,7.10
2018-01-21T21:54:54.760Z,8.13
2018-01-21T21:57:20.805Z,7.53
2018-01-21T21:59:46.845Z,6.62
2018-01-21T22:02:16.101Z,8.00
2018-01-21T22:04:42.230Z,7.50
2018-01-21T22:07:09.060Z,7.30
2018-01-21T22:09:35.124Z,7.10
2018-01-21T22:12:01.975Z,6.20
2018-01-21T22:14:28.018Z,6.00
2018-01-21T22:16:54.061Z,6.75
2018-01-21T22:19:20.170Z,6.47
2018-01-21T22:21:47.695Z,5.87
2018-01-21T22:24:13.758Z,6.00
2018-01-21T22:26:39.804Z,5.65
2018-01-21T22:29:05.821Z,6.40
2018-01-21T22:31:31.920Z,6.18
2018-01-21T22:33:59.348Z,6.60
2018-01-21T22:36:25.532Z,5.75
2018-01-21T22:38:51.600Z,5.43
2018-01-21T22:41:17.637Z,5.30
2018-01-21T22:43:43.768Z,5.50
2018-01-21T22:46:09.829Z,4.90
2018-01-21T22:48:35.924Z,4.78
2018-01-21T22:51:01.971Z,5.00
2018-01-21T22:53:28.009Z,6.03
2018-01-21T22:55:54.040Z,5.12
2018-01-21T22:58:20.153Z,5.10
2018-01-21T23:00:46.953Z,5.40
2018-01-21T23:03:13.084Z,5.72
2018-01-21T23:05:39.129Z,5.30
2018-01-21T23:08:05.160Z,5.40
2018-01-21T23:10:31.269Z,5.85
2018-01-21T23:12:58.052Z,5.55
2018-01-21T23:15:24.089Z,5.57
2018-01-21T23:17:50.164Z,5.53
2018-01-21T23:20:31.184Z,5.43
2018-01-21T23:22:57.952Z,6.07
2018-01-21T23:25:24.005Z,6.10
2018-01-21T23:27:50.090Z,5.28
2018-01-21T23:30:16.132Z,5.68
2018-01-21T23:32:42.932Z,6.53
2018-01-21T23:35:09.029Z,5.57
2018-01-21T23:37:35.796Z,6.87
2018-01-21T23:40:01.924Z,5.62
2018-01-21T23:42:28.801Z,6.07
2018-01-21T23:44:56.641Z,7.00
2018-01-21T23:47:22.997Z,6.00
2018-01-21T23:49:49.338Z,6.82
2018-01-21T23:52:15.617Z,6.62
2018-01-21T23:54:41.869Z,6.80
2018-01-21T23:57:08.128Z,5.70
2018-01-21T23:59:34.400Z,6.07
